createdAt,value
2022-10-24T00:00:17.326Z,4.05
2022-10-24T00:06:20.817Z,3.60
2022-10-24T00:18:25.518Z,4.55
2022-10-24T00:24:28.136Z,3.88
2022-10-24T00:30:30.403Z,4.28
2022-10-24T00:36:33.060Z,3.92
2022-10-24T00:42:36.435Z,4.65
2022-10-24T00:48:43.911Z,4.18
2022-10-24T00:54:46.904Z,4.13
2022-10-24T01:00:49.735Z,3.90
2022-10-24T01:07:00.667Z,4.22
2022-10-24T01:13:37.968Z,4.43
2022-10-24T01:20:12.203Z,4.10
2022-10-24T01:26:36.104Z,4.70
2022-10-24T01:32:41.161Z,4.47
2022-10-24T01:38:54.159Z,4.72
2022-10-24T01:44:59.784Z,4.75
2022-10-24T01:51:03.625Z,4.57
2022-10-24T01:57:08.244Z,4.50
2022-10-24T02:03:22.712Z,4.40
2022-10-24T02:09:25.573Z,4.70
2022-10-24T02:15:30.358Z,5.18
2022-10-24T02:22:00.435Z,5.25
2022-10-24T02:28:20.896Z,5.03
2022-10-24T02:34:26.431Z,4.85
2022-10-24T02:40:32.064Z,4.55
2022-10-24T02:46:35.839Z,5.00
2022-10-24T02:52:39.880Z,5.00
2022-10-24T02:58:42.106Z,5.07
2022-10-24T03:04:44.380Z,4.78
2022-10-24T03:10:47.006Z,4.82
2022-10-24T03:16:49.326Z,4.63
2022-10-24T03:22:51.730Z,4.93
2022-10-24T03:28:53.996Z,4.88
2022-10-24T03:34:56.255Z,4.97
2022-10-24T03:40:59.073Z,4.68
2022-10-24T03:47:03.852Z,4.75
2022-10-24T03:53:06.234Z,4.95
2022-10-24T03:59:10.899Z,4.72
2022-10-24T04:05:14.323Z,4.90
2022-10-24T04:11:16.608Z,4.85
2022-10-24T04:17:19.013Z,4.47
2022-10-24T04:23:21.296Z,4.75
2022-10-24T04:29:23.530Z,4.70
2022-10-24T04:35:26.175Z,4.20
2022-10-24T04:41:28.373Z,4.60
2022-10-24T04:47:30.615Z,4.93
2022-10-24T04:53:32.971Z,5.43
2022-10-24T04:59:35.270Z,4.85
2022-10-24T05:05:37.538Z,4.82
2022-10-24T05:11:39.761Z,4.70
2022-10-24T05:17:42.448Z,5.18
2022-10-24T05:23:44.638Z,5.00
2022-10-24T05:29:46.870Z,4.82
2022-10-24T05:35:49.856Z,4.85
2022-10-24T05:41:54.618Z,5.10
2022-10-24T05:47:57.738Z,4.75
2022-10-24T05:54:02.810Z,5.18
2022-10-24T06:00:11.872Z,4.93
2022-10-24T06:06:14.060Z,5.35
2022-10-24T06:12:16.401Z,5.22
2022-10-24T06:18:19.398Z,5.38
2022-10-24T06:24:21.842Z,4.85
2022-10-24T06:30:24.171Z,5.03
2022-10-24T06:36:29.290Z,4.78
2022-10-24T06:42:33.943Z,4.70
2022-10-24T06:48:37.403Z,4.95
2022-10-24T06:54:41.188Z,5.63
2022-10-24T07:00:43.591Z,4.93
2022-10-24T07:06:46.200Z,4.72
2022-10-24T07:12:50.130Z,4.40
2022-10-24T07:18:52.667Z,4.15
2022-10-24T07:24:56.438Z,4.57
2022-10-24T07:30:59.125Z,4.93
2022-10-24T07:37:03.639Z,4.20
2022-10-24T07:43:05.823Z,4.68
2022-10-24T07:49:09.201Z,3.85
2022-10-24T07:55:11.490Z,4.57
2022-10-24T08:01:19.565Z,4.20
2022-10-24T08:07:21.807Z,4.25
2022-10-24T08:13:24.054Z,4.20
2022-10-24T08:25:33.140Z,3.80
2022-10-24T08:31:36.121Z,4.15
2022-10-24T08:37:38.706Z,4.13
2022-10-24T08:43:40.535Z,3.97
2022-10-24T08:49:47.893Z,4.32
2022-10-24T08:55:54.726Z,4.63
2022-10-24T09:02:04.117Z,3.90
2022-10-24T09:08:37.646Z,3.67
2022-10-24T09:14:43.050Z,4.07
2022-10-24T09:20:44.949Z,4.28
2022-10-24T09:26:47.385Z,3.83
2022-10-24T09:32:49.340Z,3.50
2022-10-24T09:38:51.622Z,3.30
2022-10-24T09:44:57.870Z,4.13
2022-10-24T09:51:00.446Z,3.17
2022-10-24T09:57:04.734Z,3.45
2022-10-24T10:03:23.730Z,3.15
2022-10-24T10:09:31.469Z,3.10
2022-10-24T10:15:47.313Z,2.87
2022-10-24T10:21:56.513Z,2.80
2022-10-24T10:28:02.290Z,2.40
2022-10-24T10:34:22.496Z,2.38
2022-10-24T10:40:33.623Z,2.55
2022-10-24T10:46:54.483Z,2.22
2022-10-24T10:53:15.880Z,2.35
2022-10-24T10:59:32.789Z,2.25
2022-10-24T11:06:07.495Z,2.08
2022-10-24T11:12:12.516Z,1.88
2022-10-24T11:18:22.609Z,2.05
2022-10-24T11:24:25.187Z,2.30
2022-10-24T11:30:49.802Z,2.25
2022-10-24T11:37:14.859Z,1.77
2022-10-24T11:43:23.429Z,2.28
2022-10-24T11:49:36.787Z,1.80
2022-10-24T11:55:42.352Z,2.08
2022-10-24T12:01:45.719Z,2.33
2022-10-24T12:07:50.628Z,2.60
2022-10-24T12:14:20.785Z,3.13
2022-10-24T12:20:25.519Z,2.10
2022-10-24T12:26:28.124Z,2.60
2022-10-24T12:32:36.995Z,1.90
2022-10-24T12:38:39.070Z,2.22
2022-10-24T12:44:42.320Z,2.78
2022-10-24T12:50:44.286Z,2.60
2022-10-24T12:56:52.562Z,2.45
2022-10-24T13:03:12.458Z,2.50
2022-10-24T13:09:24.717Z,2.22
2022-10-24T13:15:35.649Z,1.92
2022-10-24T13:21:48.510Z,2.40
2022-10-24T13:28:22.525Z,2.42
2022-10-24T13:34:28.892Z,2.30
2022-10-24T13:40:33.093Z,2.33
2022-10-24T13:46:54.299Z,2.30
2022-10-24T13:53:01.965Z,1.85
2022-10-24T13:59:03.835Z,1.60
2022-10-24T14:05:06.237Z,1.92
2022-10-24T14:11:13.109Z,1.60
2022-10-24T14:17:23.538Z,1.40
2022-10-24T14:23:40.567Z,1.48
2022-10-24T14:29:52.961Z,1.50
2022-10-24T14:35:57.996Z,1.80
2022-10-24T14:42:01.636Z,1.50
2022-10-24T14:48:19.724Z,1.70
2022-10-24T15:00:27.711Z,1.83
2022-10-24T15:06:43.914Z,1.73
2022-10-24T15:13:03.065Z,1.80
2022-10-24T15:19:07.148Z,1.63
2022-10-24T15:31:27.605Z,1.88
2022-10-24T15:37:29.661Z,1.67
2022-10-24T15:43:31.471Z,1.50
2022-10-24T15:49:35.000Z,1.25
2022-10-24T15:55:36.906Z,1.40
2022-10-24T16:01:47.337Z,1.15
2022-10-24T16:07:52.120Z,1.40
2022-10-24T16:13:54.009Z,1.20
2022-10-24T16:19:55.867Z,1.60
2022-10-24T16:25:57.838Z,1.38
2022-10-24T16:31:59.680Z,1.48
2022-10-24T16:38:02.536Z,2.45
2022-10-24T16:44:04.486Z,1.60
2022-10-24T16:50:07.088Z,1.20
2022-10-24T16:56:11.250Z,1.30
2022-10-24T17:02:14.992Z,1.50
2022-10-24T17:08:16.968Z,1.25
2022-10-24T17:14:18.819Z,1.30
2022-10-24T17:20:20.940Z,1.45
2022-10-24T17:26:23.095Z,1.35
2022-10-24T17:32:25.190Z,1.35
2022-10-24T17:38:35.090Z,1.50
2022-10-24T17:44:37.860Z,1.30
2022-10-24T17:50:39.843Z,1.50
2022-10-24T17:56:42.487Z,2.28
2022-10-24T18:02:46.385Z,1.70
2022-10-24T18:08:48.808Z,1.50
2022-10-24T18:14:50.657Z,1.88
2022-10-24T18:20:52.599Z,1.67
2022-10-24T18:26:54.464Z,2.28
2022-10-24T18:32:56.333Z,1.83
2022-10-24T18:38:59.107Z,2.22
2022-10-24T18:45:01.763Z,1.90
2022-10-24T18:51:04.666Z,1.80
2022-10-24T18:57:28.083Z,1.50
2022-10-24T19:03:37.077Z,1.30
2022-10-24T19:09:40.210Z,2.15
2022-10-24T19:15:49.896Z,2.17
2022-10-24T19:21:52.339Z,1.70
2022-10-24T19:27:54.464Z,2.10
2022-10-24T19:33:56.426Z,2.13
2022-10-24T21:30:42.104Z,1.90
2022-10-24T21:36:44.180Z,1.90
2022-10-24T21:42:46.445Z,2.00
